logo
Search for airport 
image banner adimage banner adimage banner ad
image banner ad

FQMA - Maputo / International

Located in Maputo, Mozambique

ICAO - FQMA, IATA - MPM

Data provided by Airmate  

General information

Coordinates: S25°55'15" E32°34'22"
Elevation is 147 feet MSL.
 
View others Airports in Maputo (city)

Operational data

Special qualification required
Current time UTC:
Current local time:
Weather
METAR: FQMA 241300Z 24008KT 9999 FEW020 32/13 Q1013 NOSIG
TAF: TAF FQMA 241000Z 2412/2518 35009KT CAVOK TX33/2413Z TN17/2502Z BECMG 2415/2417 07015G25KT BECMG 2418/2420 15015G25KT BKN020 BECMG 2500/2502 21015KT BECMG 2506/2508 15012KT BECMG 2512/2514 VRB02KT
View NOTAMs / SUP AIP / TFR affecting this airport [VIEW]
Communications frequencies: [VIEW]

Runways:

RWY identifierQFULength (ft)Width (ft)SurfaceLDA (ft)
1086°5577148ASP
28266°5577148ASP
0529°12008148ASP
23209°12008148ASP

Airport contact information

Address: Maputo Mozambique

Satellite view of FQMA